sensor_id;sensor_type;location;lat;lon;timestamp;P1;durP1;ratioP1;P2;durP2;ratioP2
13485;SDS011;6815;59.336;17.998;2022-12-18T00:01:03;16.27;;;10.33;;
13485;SDS011;6815;59.336;17.998;2022-12-18T00:03:33;17.20;;;11.33;;
13485;SDS011;6815;59.336;17.998;2022-12-18T00:05:58;19.00;;;10.73;;
13485;SDS011;6815;59.336;17.998;2022-12-18T00:08:24;21.37;;;11.77;;
13485;SDS011;6815;59.336;17.998;2022-12-18T00:10:50;16.40;;;11.07;;
13485;SDS011;6815;59.336;17.998;2022-12-18T00:13:15;15.90;;;11.03;;
13485;SDS011;6815;59.336;17.998;2022-12-18T00:15:41;17.50;;;10.93;;
13485;SDS011;6815;59.336;17.998;2022-12-18T00:18:06;18.00;;;10.93;;
13485;SDS011;6815;59.336;17.998;2022-12-18T00:20:35;19.23;;;11.00;;
13485;SDS011;6815;59.336;17.998;2022-12-18T00:23:02;19.00;;;10.80;;
13485;SDS011;6815;59.336;17.998;2022-12-18T00:25:27;19.93;;;11.17;;
13485;SDS011;6815;59.336;17.998;2022-12-18T00:27:52;17.40;;;11.20;;
13485;SDS011;6815;59.336;17.998;2022-12-18T00:30:18;17.37;;;10.50;;
13485;SDS011;6815;59.336;17.998;2022-12-18T00:32:44;20.43;;;11.30;;
13485;SDS011;6815;59.336;17.998;2022-12-18T00:35:10;18.73;;;10.67;;
13485;SDS011;6815;59.336;17.998;2022-12-18T00:37:35;18.63;;;10.63;;
13485;SDS011;6815;59.336;17.998;2022-12-18T00:40:01;17.37;;;10.43;;
13485;SDS011;6815;59.336;17.998;2022-12-18T00:42:27;16.87;;;10.90;;
13485;SDS011;6815;59.336;17.998;2022-12-18T00:45:11;18.83;;;11.10;;
13485;SDS011;6815;59.336;17.998;2022-12-18T00:47:36;15.77;;;10.17;;
13485;SDS011;6815;59.336;17.998;2022-12-18T00:50:02;17.67;;;10.33;;
13485;SDS011;6815;59.336;17.998;2022-12-18T00:52:27;17.57;;;10.43;;
13485;SDS011;6815;59.336;17.998;2022-12-18T00:54:53;16.33;;;10.83;;
13485;SDS011;6815;59.336;17.998;2022-12-18T00:57:18;17.83;;;10.63;;
13485;SDS011;6815;59.336;17.998;2022-12-18T00:59:44;19.60;;;10.63;;
13485;SDS011;6815;59.336;17.998;2022-12-18T01:02:09;17.80;;;11.03;;
13485;SDS011;6815;59.336;17.998;2022-12-18T01:04:35;16.80;;;10.97;;
13485;SDS011;6815;59.336;17.998;2022-12-18T01:07:00;18.83;;;10.83;;
13485;SDS011;6815;59.336;17.998;2022-12-18T01:09:26;17.40;;;11.03;;
13485;SDS011;6815;59.336;17.998;2022-12-18T01:11:52;18.60;;;10.13;;
13485;SDS011;6815;59.336;17.998;2022-12-18T01:14:18;16.33;;;10.47;;
13485;SDS011;6815;59.336;17.998;2022-12-18T01:16:43;17.27;;;10.13;;
13485;SDS011;6815;59.336;17.998;2022-12-18T01:19:09;16.83;;;10.10;;
13485;SDS011;6815;59.336;17.998;2022-12-18T01:21:34;18.83;;;10.80;;
13485;SDS011;6815;59.336;17.998;2022-12-18T01:24:01;16.83;;;9.93;;
13485;SDS011;6815;59.336;17.998;2022-12-18T01:26:26;14.93;;;9.90;;
13485;SDS011;6815;59.336;17.998;2022-12-18T01:28:54;16.87;;;10.63;;
13485;SDS011;6815;59.336;17.998;2022-12-18T01:31:28;16.80;;;10.77;;
13485;SDS011;6815;59.336;17.998;2022-12-18T01:33:56;21.80;;;11.60;;
13485;SDS011;6815;59.336;17.998;2022-12-18T01:36:26;15.53;;;9.30;;
13485;SDS011;6815;59.336;17.998;2022-12-18T01:38:55;19.57;;;10.40;;
13485;SDS011;6815;59.336;17.998;2022-12-18T01:41:23;20.60;;;9.93;;
13485;SDS011;6815;59.336;17.998;2022-12-18T01:46:20;16.10;;;10.93;;
13485;SDS011;6815;59.336;17.998;2022-12-18T01:48:52;17.13;;;10.10;;
13485;SDS011;6815;59.336;17.998;2022-12-18T01:51:26;17.53;;;10.17;;
13485;SDS011;6815;59.336;17.998;2022-12-18T01:53:52;16.00;;;10.23;;
13485;SDS011;6815;59.336;17.998;2022-12-18T01:56:19;17.47;;;10.30;;
13485;SDS011;6815;59.336;17.998;2022-12-18T02:01:28;18.53;;;10.83;;
13485;SDS011;6815;59.336;17.998;2022-12-18T02:03:55;19.10;;;10.23;;
13485;SDS011;6815;59.336;17.998;2022-12-18T02:06:21;15.93;;;10.00;;
13485;SDS011;6815;59.336;17.998;2022-12-18T02:09:09;16.70;;;10.03;;
13485;SDS011;6815;59.336;17.998;2022-12-18T02:11:47;17.33;;;10.57;;
13485;SDS011;6815;59.336;17.998;2022-12-18T02:22:18;14.50;;;9.57;;
13485;SDS011;6815;59.336;17.998;2022-12-18T02:27:35;16.57;;;10.60;;
13485;SDS011;6815;59.336;17.998;2022-12-18T02:30:03;17.43;;;10.00;;
13485;SDS011;6815;59.336;17.998;2022-12-18T02:32:31;16.77;;;9.90;;
13485;SDS011;6815;59.336;17.998;2022-12-18T02:35:02;17.50;;;10.17;;
13485;SDS011;6815;59.336;17.998;2022-12-18T02:37:31;17.63;;;10.73;;
13485;SDS011;6815;59.336;17.998;2022-12-18T02:39:59;15.50;;;10.27;;
13485;SDS011;6815;59.336;17.998;2022-12-18T02:42:26;16.03;;;10.50;;
13485;SDS011;6815;59.336;17.998;2022-12-18T02:44:56;16.97;;;10.57;;
13485;SDS011;6815;59.336;17.998;2022-12-18T02:47:23;15.87;;;10.27;;
13485;SDS011;6815;59.336;17.998;2022-12-18T02:52:35;18.73;;;10.53;;
13485;SDS011;6815;59.336;17.998;2022-12-18T02:55:20;16.77;;;10.20;;
13485;SDS011;6815;59.336;17.998;2022-12-18T03:05:52;15.43;;;9.67;;
13485;SDS011;6815;59.336;17.998;2022-12-18T03:08:31;14.93;;;9.90;;
13485;SDS011;6815;59.336;17.998;2022-12-18T03:11:07;17.77;;;10.07;;
13485;SDS011;6815;59.336;17.998;2022-12-18T03:13:36;17.53;;;9.67;;
13485;SDS011;6815;59.336;17.998;2022-12-18T03:16:02;14.13;;;9.73;;
13485;SDS011;6815;59.336;17.998;2022-12-18T03:18:33;15.87;;;9.63;;
13485;SDS011;6815;59.336;17.998;2022-12-18T03:21:07;15.70;;;9.80;;
13485;SDS011;6815;59.336;17.998;2022-12-18T03:23:38;16.77;;;9.43;;
13485;SDS011;6815;59.336;17.998;2022-12-18T03:26:09;14.97;;;9.50;;
13485;SDS011;6815;59.336;17.998;2022-12-18T03:28:40;14.33;;;9.33;;
13485;SDS011;6815;59.336;17.998;2022-12-18T03:31:11;18.10;;;10.03;;
13485;SDS011;6815;59.336;17.998;2022-12-18T03:33:43;14.23;;;8.83;;
13485;SDS011;6815;59.336;17.998;2022-12-18T03:36:15;15.17;;;9.57;;
13485;SDS011;6815;59.336;17.998;2022-12-18T03:38:41;14.57;;;8.93;;
13485;SDS011;6815;59.336;17.998;2022-12-18T03:48:58;12.80;;;8.30;;
13485;SDS011;6815;59.336;17.998;2022-12-18T03:51:42;18.13;;;9.33;;
13485;SDS011;6815;59.336;17.998;2022-12-18T03:54:30;14.43;;;8.90;;
13485;SDS011;6815;59.336;17.998;2022-12-18T03:56:59;14.23;;;8.53;;
13485;SDS011;6815;59.336;17.998;2022-12-18T03:59:29;13.27;;;8.50;;
13485;SDS011;6815;59.336;17.998;2022-12-18T04:01:56;13.33;;;8.53;;
13485;SDS011;6815;59.336;17.998;2022-12-18T04:04:24;11.97;;;8.50;;
13485;SDS011;6815;59.336;17.998;2022-12-18T04:06:52;13.87;;;8.73;;
13485;SDS011;6815;59.336;17.998;2022-12-18T04:09:19;15.00;;;8.57;;
13485;SDS011;6815;59.336;17.998;2022-12-18T04:11:45;13.60;;;9.10;;
13485;SDS011;6815;59.336;17.998;2022-12-18T04:14:12;15.47;;;9.03;;
13485;SDS011;6815;59.336;17.998;2022-12-18T04:16:37;13.87;;;8.63;;
13485;SDS011;6815;59.336;17.998;2022-12-18T04:19:03;13.27;;;8.73;;
13485;SDS011;6815;59.336;17.998;2022-12-18T04:21:29;14.00;;;9.03;;
13485;SDS011;6815;59.336;17.998;2022-12-18T04:23:54;17.90;;;9.67;;
13485;SDS011;6815;59.336;17.998;2022-12-18T04:26:20;16.93;;;10.03;;
13485;SDS011;6815;59.336;17.998;2022-12-18T04:28:45;11.73;;;8.43;;
13485;SDS011;6815;59.336;17.998;2022-12-18T04:31:12;15.77;;;9.10;;
13485;SDS011;6815;59.336;17.998;2022-12-18T04:33:37;14.07;;;9.27;;
13485;SDS011;6815;59.336;17.998;2022-12-18T04:36:03;15.47;;;9.13;;
13485;SDS011;6815;59.336;17.998;2022-12-18T04:38:29;12.83;;;8.43;;
13485;SDS011;6815;59.336;17.998;2022-12-18T04:40:54;12.83;;;8.67;;
13485;SDS011;6815;59.336;17.998;2022-12-18T04:43:20;13.93;;;8.90;;
13485;SDS011;6815;59.336;17.998;2022-12-18T04:45:45;14.33;;;8.80;;
13485;SDS011;6815;59.336;17.998;2022-12-18T04:48:11;14.77;;;8.77;;
13485;SDS011;6815;59.336;17.998;2022-12-18T04:50:36;15.70;;;8.50;;
13485;SDS011;6815;59.336;17.998;2022-12-18T04:53:01;12.17;;;8.43;;
13485;SDS011;6815;59.336;17.998;2022-12-18T04:55:27;15.83;;;8.93;;
13485;SDS011;6815;59.336;17.998;2022-12-18T04:57:52;17.73;;;8.73;;
13485;SDS011;6815;59.336;17.998;2022-12-18T05:00:18;14.17;;;8.60;;
13485;SDS011;6815;59.336;17.998;2022-12-18T05:02:43;12.57;;;8.07;;
13485;SDS011;6815;59.336;17.998;2022-12-18T05:05:09;17.60;;;8.47;;
13485;SDS011;6815;59.336;17.998;2022-12-18T05:07:34;13.20;;;7.90;;
13485;SDS011;6815;59.336;17.998;2022-12-18T05:10:00;14.83;;;8.33;;
13485;SDS011;6815;59.336;17.998;2022-12-18T05:12:25;11.77;;;8.03;;
13485;SDS011;6815;59.336;17.998;2022-12-18T05:14:51;13.60;;;7.73;;
13485;SDS011;6815;59.336;17.998;2022-12-18T05:17:16;15.90;;;8.77;;
13485;SDS011;6815;59.336;17.998;2022-12-18T05:19:42;13.67;;;7.77;;
13485;SDS011;6815;59.336;17.998;2022-12-18T05:22:07;12.10;;;8.30;;
13485;SDS011;6815;59.336;17.998;2022-12-18T05:24:33;13.67;;;8.73;;
13485;SDS011;6815;59.336;17.998;2022-12-18T05:26:59;16.77;;;9.20;;
13485;SDS011;6815;59.336;17.998;2022-12-18T05:29:26;14.10;;;7.87;;
13485;SDS011;6815;59.336;17.998;2022-12-18T05:31:51;16.37;;;8.90;;
13485;SDS011;6815;59.336;17.998;2022-12-18T05:34:17;17.07;;;9.37;;
13485;SDS011;6815;59.336;17.998;2022-12-18T05:36:42;12.70;;;8.03;;
13485;SDS011;6815;59.336;17.998;2022-12-18T05:39:08;14.40;;;8.40;;
13485;SDS011;6815;59.336;17.998;2022-12-18T05:41:33;14.43;;;9.20;;
13485;SDS011;6815;59.336;17.998;2022-12-18T05:43:59;13.93;;;8.03;;
13485;SDS011;6815;59.336;17.998;2022-12-18T05:46:24;13.00;;;8.10;;
13485;SDS011;6815;59.336;17.998;2022-12-18T05:48:51;12.73;;;7.63;;
13485;SDS011;6815;59.336;17.998;2022-12-18T05:51:17;14.10;;;8.10;;
13485;SDS011;6815;59.336;17.998;2022-12-18T05:53:44;17.20;;;7.93;;
13485;SDS011;6815;59.336;17.998;2022-12-18T05:56:12;13.90;;;7.77;;
13485;SDS011;6815;59.336;17.998;2022-12-18T05:58:39;15.27;;;8.20;;
13485;SDS011;6815;59.336;17.998;2022-12-18T06:01:09;12.80;;;7.87;;
13485;SDS011;6815;59.336;17.998;2022-12-18T06:03:35;15.50;;;8.53;;
13485;SDS011;6815;59.336;17.998;2022-12-18T06:06:01;13.97;;;7.87;;
13485;SDS011;6815;59.336;17.998;2022-12-18T06:08:26;13.07;;;8.27;;
13485;SDS011;6815;59.336;17.998;2022-12-18T06:10:52;14.00;;;8.17;;
13485;SDS011;6815;59.336;17.998;2022-12-18T06:13:18;16.07;;;9.03;;
13485;SDS011;6815;59.336;17.998;2022-12-18T06:15:45;14.07;;;8.40;;
13485;SDS011;6815;59.336;17.998;2022-12-18T06:18:10;14.90;;;7.77;;
13485;SDS011;6815;59.336;17.998;2022-12-18T06:20:35;13.33;;;7.57;;
13485;SDS011;6815;59.336;17.998;2022-12-18T06:23:02;12.80;;;7.67;;
13485;SDS011;6815;59.336;17.998;2022-12-18T06:25:29;11.57;;;7.40;;
13485;SDS011;6815;59.336;17.998;2022-12-18T06:27:54;13.23;;;7.60;;
13485;SDS011;6815;59.336;17.998;2022-12-18T06:30:20;12.97;;;7.33;;
13485;SDS011;6815;59.336;17.998;2022-12-18T06:32:46;11.07;;;6.97;;
13485;SDS011;6815;59.336;17.998;2022-12-18T06:35:13;12.63;;;7.37;;
13485;SDS011;6815;59.336;17.998;2022-12-18T06:37:38;14.37;;;8.10;;
13485;SDS011;6815;59.336;17.998;2022-12-18T06:40:04;12.83;;;7.43;;
13485;SDS011;6815;59.336;17.998;2022-12-18T06:42:30;12.70;;;7.60;;
13485;SDS011;6815;59.336;17.998;2022-12-18T06:44:55;11.07;;;6.80;;
13485;SDS011;6815;59.336;17.998;2022-12-18T06:47:21;12.20;;;6.90;;
13485;SDS011;6815;59.336;17.998;2022-12-18T06:49:46;10.93;;;6.73;;
13485;SDS011;6815;59.336;17.998;2022-12-18T06:52:12;13.53;;;8.00;;
13485;SDS011;6815;59.336;17.998;2022-12-18T06:54:37;13.43;;;7.60;;
13485;SDS011;6815;59.336;17.998;2022-12-18T06:57:03;11.90;;;7.17;;
13485;SDS011;6815;59.336;17.998;2022-12-18T06:59:28;13.00;;;7.60;;
13485;SDS011;6815;59.336;17.998;2022-12-18T07:01:54;13.73;;;7.13;;
13485;SDS011;6815;59.336;17.998;2022-12-18T07:04:19;14.33;;;7.93;;
13485;SDS011;6815;59.336;17.998;2022-12-18T07:06:44;12.33;;;7.57;;
13485;SDS011;6815;59.336;17.998;2022-12-18T07:09:10;13.10;;;7.83;;
13485;SDS011;6815;59.336;17.998;2022-12-18T07:11:35;15.63;;;8.53;;
13485;SDS011;6815;59.336;17.998;2022-12-18T07:14:01;13.00;;;8.17;;
13485;SDS011;6815;59.336;17.998;2022-12-18T07:16:26;13.80;;;8.93;;
13485;SDS011;6815;59.336;17.998;2022-12-18T07:18:54;15.30;;;9.07;;
13485;SDS011;6815;59.336;17.998;2022-12-18T07:21:20;14.30;;;7.77;;
13485;SDS011;6815;59.336;17.998;2022-12-18T07:23:47;13.27;;;7.87;;
13485;SDS011;6815;59.336;17.998;2022-12-18T07:26:13;12.03;;;7.97;;
13485;SDS011;6815;59.336;17.998;2022-12-18T07:28:40;15.13;;;8.23;;
13485;SDS011;6815;59.336;17.998;2022-12-18T07:31:07;12.17;;;7.60;;
13485;SDS011;6815;59.336;17.998;2022-12-18T07:33:39;16.60;;;8.40;;
13485;SDS011;6815;59.336;17.998;2022-12-18T07:36:06;14.80;;;9.00;;
13485;SDS011;6815;59.336;17.998;2022-12-18T07:38:33;13.87;;;8.07;;
13485;SDS011;6815;59.336;17.998;2022-12-18T07:41:02;17.60;;;9.23;;
13485;SDS011;6815;59.336;17.998;2022-12-18T07:43:35;15.37;;;8.30;;
13485;SDS011;6815;59.336;17.998;2022-12-18T07:46:01;15.23;;;8.47;;
13485;SDS011;6815;59.336;17.998;2022-12-18T07:48:27;13.20;;;8.07;;
13485;SDS011;6815;59.336;17.998;2022-12-18T07:50:53;15.93;;;8.57;;
13485;SDS011;6815;59.336;17.998;2022-12-18T07:53:19;15.30;;;8.47;;
13485;SDS011;6815;59.336;17.998;2022-12-18T07:55:44;18.30;;;9.43;;
13485;SDS011;6815;59.336;17.998;2022-12-18T07:58:09;18.17;;;8.77;;
13485;SDS011;6815;59.336;17.998;2022-12-18T08:00:36;14.73;;;8.87;;
13485;SDS011;6815;59.336;17.998;2022-12-18T08:03:01;15.90;;;9.03;;
13485;SDS011;6815;59.336;17.998;2022-12-18T08:05:27;15.77;;;8.97;;
13485;SDS011;6815;59.336;17.998;2022-12-18T08:07:53;15.53;;;9.33;;
13485;SDS011;6815;59.336;17.998;2022-12-18T08:10:21;19.93;;;9.53;;
13485;SDS011;6815;59.336;17.998;2022-12-18T08:12:50;16.33;;;9.50;;
13485;SDS011;6815;59.336;17.998;2022-12-18T08:15:16;16.27;;;9.53;;
13485;SDS011;6815;59.336;17.998;2022-12-18T08:17:42;16.60;;;9.30;;
13485;SDS011;6815;59.336;17.998;2022-12-18T08:20:07;16.53;;;9.40;;
13485;SDS011;6815;59.336;17.998;2022-12-18T08:22:34;17.70;;;9.77;;
13485;SDS011;6815;59.336;17.998;2022-12-18T08:25:00;19.90;;;10.10;;
13485;SDS011;6815;59.336;17.998;2022-12-18T08:27:26;16.07;;;9.50;;
13485;SDS011;6815;59.336;17.998;2022-12-18T08:29:51;16.53;;;9.43;;
13485;SDS011;6815;59.336;17.998;2022-12-18T08:32:17;15.43;;;8.70;;
13485;SDS011;6815;59.336;17.998;2022-12-18T08:34:42;18.53;;;10.07;;
13485;SDS011;6815;59.336;17.998;2022-12-18T08:37:07;16.50;;;10.10;;
13485;SDS011;6815;59.336;17.998;2022-12-18T08:39:34;18.93;;;10.07;;
13485;SDS011;6815;59.336;17.998;2022-12-18T08:42:00;18.63;;;10.80;;
13485;SDS011;6815;59.336;17.998;2022-12-18T08:44:44;17.50;;;10.03;;
13485;SDS011;6815;59.336;17.998;2022-12-18T08:47:09;16.57;;;9.90;;
13485;SDS011;6815;59.336;17.998;2022-12-18T08:49:35;13.77;;;9.13;;
13485;SDS011;6815;59.336;17.998;2022-12-18T08:52:00;18.07;;;10.27;;
13485;SDS011;6815;59.336;17.998;2022-12-18T08:54:28;13.33;;;8.67;;
13485;SDS011;6815;59.336;17.998;2022-12-18T08:56:54;18.83;;;10.03;;
13485;SDS011;6815;59.336;17.998;2022-12-18T08:59:19;17.77;;;10.33;;
13485;SDS011;6815;59.336;17.998;2022-12-18T09:01:46;16.17;;;10.63;;
13485;SDS011;6815;59.336;17.998;2022-12-18T09:04:13;15.27;;;9.80;;
13485;SDS011;6815;59.336;17.998;2022-12-18T09:06:39;17.63;;;9.57;;
13485;SDS011;6815;59.336;17.998;2022-12-18T09:09:05;17.43;;;10.13;;
13485;SDS011;6815;59.336;17.998;2022-12-18T09:11:31;16.60;;;9.40;;
13485;SDS011;6815;59.336;17.998;2022-12-18T09:13:59;17.30;;;10.00;;
13485;SDS011;6815;59.336;17.998;2022-12-18T09:16:26;14.27;;;8.87;;
13485;SDS011;6815;59.336;17.998;2022-12-18T09:18:53;16.97;;;10.10;;
13485;SDS011;6815;59.336;17.998;2022-12-18T09:21:24;14.77;;;9.27;;
13485;SDS011;6815;59.336;17.998;2022-12-18T09:23:51;18.00;;;10.40;;
13485;SDS011;6815;59.336;17.998;2022-12-18T09:26:17;18.47;;;9.47;;
13485;SDS011;6815;59.336;17.998;2022-12-18T09:28:43;16.77;;;9.50;;
13485;SDS011;6815;59.336;17.998;2022-12-18T09:31:10;14.47;;;9.20;;
13485;SDS011;6815;59.336;17.998;2022-12-18T09:33:36;13.93;;;9.23;;
13485;SDS011;6815;59.336;17.998;2022-12-18T09:36:03;16.00;;;9.07;;
13485;SDS011;6815;59.336;17.998;2022-12-18T09:38:30;15.97;;;8.70;;
13485;SDS011;6815;59.336;17.998;2022-12-18T09:40:59;14.57;;;8.57;;
13485;SDS011;6815;59.336;17.998;2022-12-18T09:43:52;14.37;;;8.47;;
13485;SDS011;6815;59.336;17.998;2022-12-18T09:46:23;15.67;;;10.30;;
13485;SDS011;6815;59.336;17.998;2022-12-18T09:48:56;14.60;;;9.90;;
13485;SDS011;6815;59.336;17.998;2022-12-18T09:51:30;15.67;;;8.87;;
13485;SDS011;6815;59.336;17.998;2022-12-18T09:54:07;16.10;;;9.07;;
13485;SDS011;6815;59.336;17.998;2022-12-18T09:56:42;14.97;;;9.00;;
13485;SDS011;6815;59.336;17.998;2022-12-18T09:59:42;14.53;;;9.50;;
13485;SDS011;6815;59.336;17.998;2022-12-18T10:02:22;19.27;;;9.50;;
13485;SDS011;6815;59.336;17.998;2022-12-18T10:05:35;16.20;;;10.20;;
13485;SDS011;6815;59.336;17.998;2022-12-18T10:12:50;15.03;;;8.90;;
13485;SDS011;6815;59.336;17.998;2022-12-18T10:15:24;18.53;;;10.57;;
13485;SDS011;6815;59.336;17.998;2022-12-18T10:18:08;15.40;;;9.97;;
13485;SDS011;6815;59.336;17.998;2022-12-18T10:20:46;13.83;;;8.77;;
13485;SDS011;6815;59.336;17.998;2022-12-18T10:23:20;13.37;;;8.87;;
13485;SDS011;6815;59.336;17.998;2022-12-18T10:26:03;18.67;;;10.27;;
13485;SDS011;6815;59.336;17.998;2022-12-18T10:28:31;15.97;;;9.77;;
13485;SDS011;6815;59.336;17.998;2022-12-18T10:30:58;16.37;;;8.90;;
13485;SDS011;6815;59.336;17.998;2022-12-18T10:33:27;17.33;;;9.93;;
13485;SDS011;6815;59.336;17.998;2022-12-18T10:35:54;14.40;;;9.60;;
13485;SDS011;6815;59.336;17.998;2022-12-18T10:38:24;17.27;;;9.30;;
13485;SDS011;6815;59.336;17.998;2022-12-18T10:40:56;15.63;;;9.20;;
13485;SDS011;6815;59.336;17.998;2022-12-18T10:43:25;14.13;;;9.33;;
13485;SDS011;6815;59.336;17.998;2022-12-18T10:46:02;13.93;;;9.07;;
13485;SDS011;6815;59.336;17.998;2022-12-18T10:53:52;13.40;;;9.13;;
13485;SDS011;6815;59.336;17.998;2022-12-18T10:56:21;17.30;;;9.40;;
13485;SDS011;6815;59.336;17.998;2022-12-18T10:59:02;14.77;;;9.10;;
13485;SDS011;6815;59.336;17.998;2022-12-18T11:04:17;15.67;;;9.33;;
13485;SDS011;6815;59.336;17.998;2022-12-18T11:07:01;16.30;;;9.63;;
13485;SDS011;6815;59.336;17.998;2022-12-18T11:09:29;14.63;;;9.03;;
13485;SDS011;6815;59.336;17.998;2022-12-18T11:12:18;13.80;;;9.23;;
13485;SDS011;6815;59.336;17.998;2022-12-18T11:14:53;15.33;;;9.53;;
13485;SDS011;6815;59.336;17.998;2022-12-18T11:17:34;16.30;;;9.17;;
13485;SDS011;6815;59.336;17.998;2022-12-18T11:20:04;17.80;;;9.93;;
13485;SDS011;6815;59.336;17.998;2022-12-18T11:22:32;14.17;;;9.80;;
13485;SDS011;6815;59.336;17.998;2022-12-18T11:27:25;15.73;;;10.10;;
13485;SDS011;6815;59.336;17.998;2022-12-18T11:29:51;16.93;;;10.57;;
13485;SDS011;6815;59.336;17.998;2022-12-18T11:32:24;14.33;;;9.53;;
13485;SDS011;6815;59.336;17.998;2022-12-18T11:34:57;12.57;;;8.60;;
13485;SDS011;6815;59.336;17.998;2022-12-18T11:37:27;16.03;;;9.67;;
13485;SDS011;6815;59.336;17.998;2022-12-18T11:42:41;17.83;;;9.40;;
13485;SDS011;6815;59.336;17.998;2022-12-18T11:47:38;12.80;;;8.60;;
13485;SDS011;6815;59.336;17.998;2022-12-18T11:50:19;14.57;;;8.37;;
13485;SDS011;6815;59.336;17.998;2022-12-18T11:52:48;14.77;;;8.90;;
13485;SDS011;6815;59.336;17.998;2022-12-18T12:00:56;11.00;;;8.30;;
13485;SDS011;6815;59.336;17.998;2022-12-18T12:12:15;11.93;;;8.23;;
13485;SDS011;6815;59.336;17.998;2022-12-18T12:15:14;15.60;;;8.50;;
13485;SDS011;6815;59.336;17.998;2022-12-18T12:38:21;11.60;;;8.07;;
13485;SDS011;6815;59.336;17.998;2022-12-18T12:41:04;13.97;;;8.33;;
13485;SDS011;6815;59.336;17.998;2022-12-18T12:43:52;13.40;;;7.57;;
13485;SDS011;6815;59.336;17.998;2022-12-18T12:46:21;14.47;;;8.00;;
13485;SDS011;6815;59.336;17.998;2022-12-18T12:48:50;12.33;;;8.03;;
13485;SDS011;6815;59.336;17.998;2022-12-18T12:51:36;13.50;;;7.73;;
13485;SDS011;6815;59.336;17.998;2022-12-18T12:54:06;12.57;;;8.10;;
13485;SDS011;6815;59.336;17.998;2022-12-18T12:56:54;14.63;;;8.07;;
13485;SDS011;6815;59.336;17.998;2022-12-18T13:10:27;13.80;;;7.63;;
13485;SDS011;6815;59.336;17.998;2022-12-18T13:20:35;11.73;;;6.80;;
13485;SDS011;6815;59.336;17.998;2022-12-18T13:25:48;12.40;;;7.50;;
13485;SDS011;6815;59.336;17.998;2022-12-18T13:28:22;11.13;;;6.33;;
13485;SDS011;6815;59.336;17.998;2022-12-18T13:31:08;13.17;;;6.97;;
13485;SDS011;6815;59.336;17.998;2022-12-18T13:36:09;10.77;;;6.53;;
13485;SDS011;6815;59.336;17.998;2022-12-18T13:38:37;11.13;;;5.77;;
13485;SDS011;6815;59.336;17.998;2022-12-18T13:41:04;12.33;;;6.70;;
13485;SDS011;6815;59.336;17.998;2022-12-18T13:43:50;15.07;;;6.37;;
13485;SDS011;6815;59.336;17.998;2022-12-18T13:51:39;11.10;;;5.93;;
13485;SDS011;6815;59.336;17.998;2022-12-18T13:56:50;11.47;;;6.47;;
13485;SDS011;6815;59.336;17.998;2022-12-18T13:59:17;14.10;;;6.33;;
13485;SDS011;6815;59.336;17.998;2022-12-18T14:01:43;13.40;;;5.87;;
13485;SDS011;6815;59.336;17.998;2022-12-18T14:04:20;9.87;;;5.70;;
13485;SDS011;6815;59.336;17.998;2022-12-18T14:06:49;9.83;;;5.60;;
13485;SDS011;6815;59.336;17.998;2022-12-18T14:09:18;10.97;;;6.17;;
13485;SDS011;6815;59.336;17.998;2022-12-18T14:11:51;9.53;;;6.10;;
13485;SDS011;6815;59.336;17.998;2022-12-18T14:14:18;11.90;;;5.03;;
13485;SDS011;6815;59.336;17.998;2022-12-18T14:16:45;9.60;;;5.67;;
13485;SDS011;6815;59.336;17.998;2022-12-18T14:19:13;11.07;;;5.47;;
13485;SDS011;6815;59.336;17.998;2022-12-18T14:21:40;10.67;;;5.23;;
13485;SDS011;6815;59.336;17.998;2022-12-18T14:24:20;10.07;;;5.27;;
13485;SDS011;6815;59.336;17.998;2022-12-18T14:26:48;9.17;;;5.17;;
13485;SDS011;6815;59.336;17.998;2022-12-18T14:32:10;10.73;;;5.83;;
13485;SDS011;6815;59.336;17.998;2022-12-18T14:37:17;9.13;;;5.40;;
13485;SDS011;6815;59.336;17.998;2022-12-18T14:39:53;12.23;;;5.47;;
13485;SDS011;6815;59.336;17.998;2022-12-18T14:42:41;10.00;;;4.70;;
13485;SDS011;6815;59.336;17.998;2022-12-18T14:48:05;10.23;;;4.77;;
13485;SDS011;6815;59.336;17.998;2022-12-18T14:50:54;9.27;;;4.90;;
13485;SDS011;6815;59.336;17.998;2022-12-18T14:53:42;7.60;;;4.90;;
13485;SDS011;6815;59.336;17.998;2022-12-18T14:56:13;8.33;;;4.90;;
13485;SDS011;6815;59.336;17.998;2022-12-18T15:01:36;7.90;;;4.27;;
13485;SDS011;6815;59.336;17.998;2022-12-18T15:04:22;9.43;;;4.03;;
13485;SDS011;6815;59.336;17.998;2022-12-18T15:07:14;10.50;;;4.80;;
13485;SDS011;6815;59.336;17.998;2022-12-18T15:10:08;11.87;;;5.20;;
13485;SDS011;6815;59.336;17.998;2022-12-18T15:20:53;10.17;;;4.90;;
13485;SDS011;6815;59.336;17.998;2022-12-18T15:26:11;8.83;;;4.00;;
13485;SDS011;6815;59.336;17.998;2022-12-18T15:28:46;10.53;;;4.27;;
13485;SDS011;6815;59.336;17.998;2022-12-18T15:34:19;10.97;;;4.00;;
13485;SDS011;6815;59.336;17.998;2022-12-18T15:36:46;9.03;;;3.40;;
13485;SDS011;6815;59.336;17.998;2022-12-18T15:39:13;7.57;;;3.40;;
13485;SDS011;6815;59.336;17.998;2022-12-18T15:41:39;9.07;;;3.50;;
13485;SDS011;6815;59.336;17.998;2022-12-18T15:44:25;5.50;;;3.30;;
13485;SDS011;6815;59.336;17.998;2022-12-18T15:46:50;6.27;;;3.67;;
13485;SDS011;6815;59.336;17.998;2022-12-18T15:49:16;6.77;;;3.43;;
13485;SDS011;6815;59.336;17.998;2022-12-18T15:51:42;7.33;;;2.97;;
13485;SDS011;6815;59.336;17.998;2022-12-18T15:54:11;6.37;;;3.27;;
13485;SDS011;6815;59.336;17.998;2022-12-18T15:56:41;7.73;;;2.97;;
13485;SDS011;6815;59.336;17.998;2022-12-18T15:59:25;8.60;;;3.20;;
13485;SDS011;6815;59.336;17.998;2022-12-18T16:01:51;8.13;;;3.50;;
13485;SDS011;6815;59.336;17.998;2022-12-18T16:04:20;7.60;;;3.47;;
13485;SDS011;6815;59.336;17.998;2022-12-18T16:06:47;6.73;;;2.97;;
13485;SDS011;6815;59.336;17.998;2022-12-18T16:09:13;5.53;;;2.97;;
13485;SDS011;6815;59.336;17.998;2022-12-18T16:11:47;5.70;;;2.70;;
13485;SDS011;6815;59.336;17.998;2022-12-18T16:14:22;9.83;;;2.80;;
13485;SDS011;6815;59.336;17.998;2022-12-18T16:16:53;8.30;;;3.67;;
13485;SDS011;6815;59.336;17.998;2022-12-18T16:19:22;7.40;;;2.90;;
13485;SDS011;6815;59.336;17.998;2022-12-18T16:21:48;9.10;;;2.93;;
13485;SDS011;6815;59.336;17.998;2022-12-18T16:24:16;3.97;;;2.20;;
13485;SDS011;6815;59.336;17.998;2022-12-18T16:26:44;6.03;;;2.77;;
13485;SDS011;6815;59.336;17.998;2022-12-18T16:29:10;9.07;;;2.57;;
13485;SDS011;6815;59.336;17.998;2022-12-18T16:31:36;5.57;;;2.50;;
13485;SDS011;6815;59.336;17.998;2022-12-18T16:34:19;4.43;;;2.53;;
13485;SDS011;6815;59.336;17.998;2022-12-18T16:36:51;8.80;;;2.57;;
13485;SDS011;6815;59.336;17.998;2022-12-18T16:39:18;8.83;;;2.43;;
13485;SDS011;6815;59.336;17.998;2022-12-18T16:41:45;7.53;;;2.70;;
13485;SDS011;6815;59.336;17.998;2022-12-18T16:44:10;8.77;;;2.67;;
13485;SDS011;6815;59.336;17.998;2022-12-18T16:46:36;3.27;;;1.90;;
13485;SDS011;6815;59.336;17.998;2022-12-18T16:49:02;5.50;;;1.97;;
13485;SDS011;6815;59.336;17.998;2022-12-18T16:51:28;4.53;;;2.20;;
13485;SDS011;6815;59.336;17.998;2022-12-18T16:53:54;4.83;;;2.17;;
13485;SDS011;6815;59.336;17.998;2022-12-18T16:56:25;5.07;;;2.43;;
13485;SDS011;6815;59.336;17.998;2022-12-18T16:58:53;6.33;;;2.33;;
13485;SDS011;6815;59.336;17.998;2022-12-18T17:01:20;7.00;;;2.50;;
13485;SDS011;6815;59.336;17.998;2022-12-18T17:06:19;7.67;;;2.10;;
13485;SDS011;6815;59.336;17.998;2022-12-18T17:08:45;4.73;;;2.37;;
13485;SDS011;6815;59.336;17.998;2022-12-18T17:11:11;8.13;;;2.33;;
13485;SDS011;6815;59.336;17.998;2022-12-18T17:13:36;9.37;;;2.07;;
13485;SDS011;6815;59.336;17.998;2022-12-18T17:16:02;5.43;;;2.13;;